Time;durP1;ratioP1;P1;durP2;ratioP2;P2;SDS_P1;SDS_P2;PMS_P1;PMS_P2;Temp;Humidity;BMP_temperature;BMP_pressure;BME280_temperature;BME280_humidity;BME280_pressure;Samples;Min_cycle;Max_cycle;Signal;HPM_P1;HPM_P2
2022/06/09 00:01:36;;;;;;;28.38;17.00;;;15.50;99.90;;;;;;5057634;28;20050;-86
2022/06/09 00:04:13;;;;;;;22.45;12.70;;;15.50;99.90;;;;;;5074539;28;20043;-86
2022/06/09 00:06:44;;;;;;;31.40;18.50;;;15.40;99.90;;;;;;5074901;28;20068;-85
2022/06/09 00:09:10;;;;;;;24.92;12.20;;;15.40;99.90;;;;;;5073580;28;20039;-85
2022/06/09 00:11:40;;;;;;;26.63;16.67;;;15.40;99.90;;;;;;5057782;28;20040;-86
2022/06/09 00:14:07;;;;;;;24.50;11.43;;;15.40;99.90;;;;;;5057813;28;20063;-85
2022/06/09 00:16:34;;;;;;;27.88;16.30;;;15.30;99.90;;;;;;5073980;28;20036;-85
2022/06/09 00:18:59;;;;;;;22.98;11.57;;;15.30;99.90;;;;;;5074343;28;20377;-85
2022/06/09 00:21:25;;;;;;;24.20;11.52;;;15.30;99.90;;;;;;5074162;28;20074;-85
2022/06/09 00:23:50;;;;;;;26.52;14.48;;;15.20;99.90;;;;;;5073667;28;20048;-85
2022/06/09 00:26:17;;;;;;;26.08;14.27;;;15.20;99.90;;;;;;5074229;28;20036;-85
2022/06/09 00:28:43;;;;;;;19.83;9.65;;;15.20;99.90;;;;;;5074045;28;20036;-86
2022/06/09 00:31:09;;;;;;;25.70;12.55;;;15.10;99.90;;;;;;5073482;28;20173;-85
2022/06/09 00:33:34;;;;;;;23.25;10.40;;;15.10;99.90;;;;;;5074108;28;20047;-85
2022/06/09 00:36:00;;;;;;;19.42;9.68;;;15.10;99.90;;;;;;5074364;28;20443;-86
2022/06/09 00:38:26;;;;;;;26.98;14.05;;;15.00;99.90;;;;;;5073722;28;20490;-85
2022/06/09 00:40:55;;;;;;;22.02;10.15;;;15.00;99.90;;;;;;5073688;28;20123;-85
2022/06/09 00:43:20;;;;;;;22.05;13.50;;;15.00;99.90;;;;;;5073942;28;20048;-85
2022/06/09 00:46:05;;;;;;;24.55;9.63;;;15.00;99.90;;;;;;5073595;28;20036;-85
2022/06/09 00:49:04;;;;;;;22.25;9.27;;;14.90;99.90;;;;;;5073926;28;20040;-85
2022/06/09 00:51:40;;;;;;;24.38;13.57;;;14.80;99.90;;;;;;5012729;28;20156;-85
2022/06/09 00:54:12;;;;;;;20.75;9.45;;;14.80;99.90;;;;;;5012870;28;20057;-86
2022/06/09 00:56:43;;;;;;;19.27;8.73;;;14.80;99.90;;;;;;5012739;28;20041;-85
2022/06/09 00:59:15;;;;;;;24.27;13.70;;;14.70;99.90;;;;;;5012675;28;20063;-86
2022/06/09 01:01:41;;;;;;;26.92;13.18;;;14.70;99.90;;;;;;5012730;28;20072;-85
2022/06/09 01:04:09;;;;;;;18.77;9.23;;;14.70;99.90;;;;;;5012765;28;20093;-86
2022/06/09 01:06:52;;;;;;;18.25;9.32;;;14.60;99.90;;;;;;5012220;28;20053;-85
2022/06/09 01:09:20;;;;;;;;;;;14.50;99.90;;;;;;5034441;22;20049;-85
2022/06/09 01:11:48;;;;;;;17.58;8.48;;;14.50;99.90;;;;;;5037027;28;19955;-85
2022/06/09 01:14:16;;;;;;;21.15;10.27;;;14.40;99.90;;;;;;5053166;28;20037;-86
2022/06/09 01:17:01;;;;;;;23.77;14.88;;;14.40;99.90;;;;;;5053893;28;20098;-85
2022/06/09 01:19:45;;;;;;;21.20;10.70;;;14.50;99.90;;;;;;5053091;28;20179;-85
2022/06/09 01:22:51;;;;;;;27.08;16.17;;;14.40;99.90;;;;;;5036370;28;20037;-85
2022/06/09 01:25:57;;;;;;;18.17;9.18;;;14.50;99.90;;;;;;5053762;28;20036;-85
2022/06/09 01:28:50;;;;;;;22.70;9.23;;;14.40;99.90;;;;;;5053388;28;20043;-85
2022/06/09 01:31:50;;;;;;;20.80;9.88;;;14.40;99.90;;;;;;5052900;28;20127;-85
2022/06/09 01:34:31;;;;;;;24.52;14.30;;;14.40;99.90;;;;;;5053483;28;20040;-85
2022/06/09 01:37:13;;;;;;;24.15;10.18;;;14.40;99.90;;;;;;5036626;28;20489;-85
2022/06/09 01:39:57;;;;;;;20.50;7.97;;;14.30;99.90;;;;;;5036666;28;20075;-85
2022/06/09 01:42:27;;;;;;;24.95;9.25;;;14.20;99.90;;;;;;5053510;28;20037;-85
2022/06/09 01:45:07;;;;;;;25.20;13.38;;;14.20;99.90;;;;;;5036182;28;20447;-85
2022/06/09 01:47:51;;;;;;;16.48;9.45;;;14.10;99.90;;;;;;5053496;28;20107;-85
2022/06/09 01:50:37;;;;;;;25.48;13.63;;;14.10;99.90;;;;;;5036236;28;20068;-85
2022/06/09 01:53:10;;;;;;;21.27;9.25;;;14.10;99.90;;;;;;5036277;28;20041;-85
2022/06/09 01:55:40;;;;;;;27.02;8.40;;;14.00;99.90;;;;;;5053210;28;20036;-85
2022/06/09 01:58:07;;;;;;;25.70;10.95;;;13.90;99.90;;;;;;5053423;28;20086;-85
2022/06/09 02:00:33;;;;;;;24.45;9.55;;;13.90;99.90;;;;;;5052432;28;20094;-85
2022/06/09 02:03:15;;;;;;;22.65;12.73;;;13.80;99.90;;;;;;5052962;28;20036;-85
2022/06/09 02:05:47;;;;;;;21.42;8.43;;;13.80;99.90;;;;;;5053028;28;20043;-85
2022/06/09 02:08:15;;;;;;;17.25;8.05;;;13.80;99.90;;;;;;5053095;28;20040;-85
2022/06/09 02:10:46;;;;;;;24.45;12.63;;;13.80;99.90;;;;;;5036172;28;20072;-85
2022/06/09 02:13:20;;;;;;;18.92;8.35;;;13.80;99.90;;;;;;5052997;28;20041;-85
2022/06/09 02:15:50;;;;;;;24.08;8.52;;;13.70;99.90;;;;;;5053088;28;20044;-85
2022/06/09 02:18:23;;;;;;;21.60;8.32;;;13.70;99.90;;;;;;5053950;28;20568;-85
2022/06/09 02:20:58;;;;;;;18.17;7.90;;;13.70;99.90;;;;;;5039119;28;20052;-85
2022/06/09 02:23:24;;;;;;;23.75;12.15;;;13.60;99.90;;;;;;5056441;28;20052;-86
2022/06/09 02:25:50;;;;;;;19.65;9.30;;;13.70;99.90;;;;;;5056713;28;20083;-85
2022/06/09 02:28:16;;;;;;;18.85;8.15;;;13.60;99.90;;;;;;5055956;28;20083;-85
2022/06/09 02:30:42;;;;;;;22.58;8.70;;;13.60;99.90;;;;;;5039327;28;20033;-86
2022/06/09 02:33:09;;;;;;;18.77;8.85;;;13.60;99.90;;;;;;5056352;28;20052;-85
2022/06/09 02:35:35;;;;;;;20.63;8.55;;;13.60;99.90;;;;;;5039431;28;20040;-86
2022/06/09 02:38:01;;;;;;;22.95;8.43;;;13.60;99.90;;;;;;5056259;28;20162;-85
2022/06/09 02:40:28;;;;;;;28.35;12.93;;;13.60;99.90;;;;;;5039198;28;20510;-85
2022/06/09 02:42:54;;;;;;;22.10;9.55;;;13.60;99.90;;;;;;5055826;28;20270;-86
2022/06/09 02:45:20;;;;;;;27.08;13.75;;;13.60;99.90;;;;;;5056027;28;20040;-85
2022/06/09 02:47:46;;;;;;;27.75;14.13;;;13.70;99.90;;;;;;5056298;28;20051;-85
2022/06/09 02:50:12;;;;;;;20.13;7.82;;;13.70;99.90;;;;;;5038895;28;20036;-86
2022/06/09 02:52:37;;;;;;;22.52;8.77;;;13.70;99.90;;;;;;5038951;28;20082;-85
2022/06/09 02:55:03;;;;;;;26.65;10.25;;;13.60;99.90;;;;;;5055953;28;20441;-85
2022/06/09 02:57:29;;;;;;;28.02;14.27;;;13.60;99.90;;;;;;5055750;28;20043;-85
2022/06/09 02:59:55;;;;;;;22.98;9.52;;;13.70;99.90;;;;;;5054976;28;20040;-85
2022/06/09 03:02:21;;;;;;;23.42;10.35;;;13.70;99.90;;;;;;5055714;28;20044;-85
2022/06/09 03:04:46;;;;;;;22.08;9.63;;;13.60;99.90;;;;;;5055732;28;20041;-85
2022/06/09 03:07:13;;;;;;;37.33;17.48;;;13.60;99.90;;;;;;5055333;28;20123;-85
2022/06/09 03:09:41;;;;;;;30.20;11.27;;;13.60;99.90;;;;;;5038673;28;20389;-85
2022/06/09 03:12:09;;;;;;;23.73;10.30;;;13.60;99.90;;;;;;5038952;28;20123;-85
2022/06/09 03:14:35;;;;;;;30.48;16.58;;;13.60;99.90;;;;;;5055245;28;20041;-85
2022/06/09 03:17:02;;;;;;;26.85;10.45;;;13.60;99.90;;;;;;5055557;28;20072;-85
2022/06/09 03:19:27;;;;;;;24.67;11.48;;;13.60;99.90;;;;;;5055076;28;20036;-85
2022/06/09 03:21:53;;;;;;;24.83;10.90;;;13.50;99.90;;;;;;5055145;28;20039;-85
2022/06/09 03:24:19;;;;;;;22.95;10.02;;;13.50;99.90;;;;;;5055278;28;20047;-85
2022/06/09 03:26:44;;;;;;;28.88;15.23;;;13.50;99.90;;;;;;5055419;28;20036;-85
2022/06/09 03:29:10;;;;;;;25.80;9.80;;;13.50;99.90;;;;;;5053946;28;20131;-85
2022/06/09 03:31:35;;;;;;;23.60;9.40;;;13.50;99.90;;;;;;5055176;28;20048;-85
2022/06/09 03:34:02;;;;;;;24.05;10.07;;;13.50;99.90;;;;;;5038581;28;20043;-85
2022/06/09 03:36:29;;;;;;;22.50;9.75;;;13.40;99.90;;;;;;5054815;28;20055;-85
2022/06/09 03:38:54;;;;;;;23.27;9.75;;;13.40;99.90;;;;;;5038397;28;20044;-85
2022/06/09 03:41:20;;;;;;;22.00;9.43;;;13.40;99.90;;;;;;5055047;28;20416;-85
2022/06/09 03:43:45;;;;;;;20.05;9.20;;;13.40;99.90;;;;;;5054490;28;20041;-85
2022/06/09 03:46:12;;;;;;;19.58;9.68;;;13.40;99.90;;;;;;5055059;28;20048;-86
2022/06/09 03:48:38;;;;;;;20.85;8.95;;;13.40;99.90;;;;;;5054898;28;20071;-85
2022/06/09 03:51:03;;;;;;;21.15;8.93;;;13.40;99.90;;;;;;5054093;28;20125;-85
2022/06/09 03:53:29;;;;;;;26.63;14.07;;;13.40;99.90;;;;;;5054775;28;20055;-85
2022/06/09 03:55:56;;;;;;;24.67;9.15;;;13.40;99.90;;;;;;5054811;28;20119;-85
2022/06/09 03:58:21;;;;;;;19.77;8.52;;;13.40;99.90;;;;;;5037626;28;20046;-86
2022/06/09 04:00:47;;;;;;;22.98;9.43;;;13.40;99.90;;;;;;5054288;28;20037;-85
2022/06/09 04:03:13;;;;;;;26.48;8.63;;;13.40;99.90;;;;;;5054674;28;20043;-86
2022/06/09 04:05:38;;;;;;;20.98;8.50;;;13.30;99.90;;;;;;5054281;28;20036;-86
2022/06/09 04:08:09;;;;;;;20.27;9.43;;;13.40;99.90;;;;;;5038263;28;20040;-85
2022/06/09 04:10:34;;;;;;;23.55;8.75;;;13.40;99.90;;;;;;5053970;28;20086;-85
2022/06/09 04:13:00;;;;;;;24.50;10.07;;;13.40;99.90;;;;;;5053928;28;20036;-85
2022/06/09 04:15:26;;;;;;;27.60;12.88;;;13.40;99.90;;;;;;5037724;28;20047;-85
2022/06/09 04:17:52;;;;;;;22.70;8.55;;;13.50;99.90;;;;;;5054619;28;20048;-85
2022/06/09 04:20:20;;;;;;;26.75;11.38;;;13.50;99.90;;;;;;5053537;28;20055;-85
2022/06/09 04:22:46;;;;;;;23.50;9.75;;;13.50;99.90;;;;;;5054090;28;20444;-85
2022/06/09 04:25:12;;;;;;;22.35;9.30;;;13.50;99.90;;;;;;5037551;28;20040;-86
2022/06/09 04:27:38;;;;;;;25.35;8.80;;;13.50;99.90;;;;;;5037246;28;20366;-85
2022/06/09 04:30:04;;;;;;;33.33;10.73;;;13.60;99.90;;;;;;5054105;28;20076;-85
2022/06/09 04:32:30;;;;;;;29.75;13.38;;;13.60;99.90;;;;;;5037396;28;20029;-85
2022/06/09 04:34:55;;;;;;;23.30;9.40;;;13.70;99.90;;;;;;5053790;28;20037;-85
2022/06/09 04:37:59;;;;;;;21.83;8.20;;;13.70;99.90;;;;;;5037480;28;20040;-85
2022/06/09 04:40:08;;;;;;;24.35;8.85;;;13.70;99.90;;;;;;5053409;28;20417;-85
2022/06/09 04:42:33;;;;;;;23.05;9.40;;;13.80;99.90;;;;;;5053135;28;20037;-85
2022/06/09 04:44:59;;;;;;;24.58;10.40;;;13.80;99.90;;;;;;5037414;28;20411;-85
2022/06/09 04:47:24;;;;;;;20.92;8.80;;;13.90;99.90;;;;;;5053912;28;20681;-85
2022/06/09 04:49:50;;;;;;;27.90;12.90;;;13.90;99.90;;;;;;5053012;28;20078;-85
2022/06/09 04:52:16;;;;;;;23.33;9.48;;;14.00;99.90;;;;;;5053851;28;20093;-85
2022/06/09 04:54:41;;;;;;;22.67;8.85;;;14.00;99.90;;;;;;5037126;28;20138;-85
2022/06/09 04:57:07;;;;;;;21.92;8.57;;;14.10;99.90;;;;;;5053331;28;20040;-85
2022/06/09 04:59:32;;;;;;;25.38;8.90;;;14.10;99.90;;;;;;5053678;28;20040;-85
2022/06/09 05:01:58;;;;;;;24.42;12.00;;;14.10;99.90;;;;;;5053852;28;20045;-85
2022/06/09 05:04:24;;;;;;;23.90;10.45;;;14.20;99.90;;;;;;5053232;28;20048;-85
2022/06/09 05:06:49;;;;;;;25.13;12.02;;;14.20;99.90;;;;;;5053642;28;20036;-85
2022/06/09 05:09:15;;;;;;;22.63;11.82;;;14.30;99.90;;;;;;5053090;28;20085;-86
2022/06/09 05:11:42;;;;;;;18.70;8.55;;;14.30;99.90;;;;;;5053328;28;20086;-85
2022/06/09 05:14:07;;;;;;;25.00;10.10;;;14.40;99.90;;;;;;5037323;28;20041;-85
2022/06/09 05:16:33;;;;;;;16.17;7.55;;;14.40;99.90;;;;;;5053571;28;20045;-85
2022/06/09 05:18:58;;;;;;;20.63;8.85;;;14.40;99.90;;;;;;5053228;28;20047;-85
2022/06/09 05:21:24;;;;;;;19.90;10.45;;;14.40;99.90;;;;;;5036865;28;20520;-85
2022/06/09 05:23:49;;;;;;;22.40;8.35;;;14.50;99.90;;;;;;5053361;28;20445;-85
2022/06/09 05:26:16;;;;;;;23.48;8.50;;;14.50;99.90;;;;;;5053163;28;20410;-85
2022/06/09 05:28:42;;;;;;;21.73;11.02;;;14.50;99.90;;;;;;5053389;28;20044;-85
2022/06/09 05:31:07;;;;;;;19.85;7.47;;;14.50;99.90;;;;;;5053142;28;20079;-85
2022/06/09 05:33:33;;;;;;;19.00;9.95;;;14.50;99.90;;;;;;5053127;28;20471;-85
2022/06/09 05:36:00;;;;;;;17.08;7.43;;;14.60;99.90;;;;;;5053662;28;20036;-85
2022/06/09 05:46:40;;;;;;;16.42;7.80;;;14.60;99.90;;;;;;5053153;28;20041;-85
2022/06/09 05:49:06;;;;;;;18.10;8.73;;;14.60;99.90;;;;;;5052453;28;20037;-85
2022/06/09 05:51:32;;;;;;;20.05;8.18;;;14.60;99.90;;;;;;5036650;28;20409;-85
2022/06/09 05:53:58;;;;;;;17.27;8.52;;;14.70;99.90;;;;;;5040438;28;20127;-85
2022/06/09 05:56:24;;;;;;;19.02;9.48;;;14.70;99.90;;;;;;5040075;28;20036;-85
2022/06/09 05:58:49;;;;;;;19.40;10.63;;;14.80;99.90;;;;;;5056954;28;20033;-85
2022/06/09 06:01:15;;;;;;;17.90;8.38;;;14.80;99.90;;;;;;5056461;28;20429;-85
2022/06/09 06:03:41;;;;;;;15.23;7.57;;;14.90;99.90;;;;;;5056387;28;20098;-85
2022/06/09 06:08:51;;;;;;;18.30;8.05;;;14.90;99.90;;;;;;5057025;28;20041;-84
2022/06/09 06:11:17;;;;;;;18.63;10.25;;;15.00;99.90;;;;;;5056033;28;20489;-85
2022/06/09 06:13:45;;;;;;;17.00;9.18;;;15.00;99.90;;;;;;5040182;28;20129;-85
2022/06/09 06:16:11;;;;;;;16.50;12.02;;;15.00;99.90;;;;;;5040357;28;20036;-85
2022/06/09 06:18:36;;;;;;;16.08;11.07;;;15.10;99.90;;;;;;5039562;28;20550;-85
2022/06/09 06:21:02;;;;;;;14.82;12.02;;;15.10;99.90;;;;;;5056205;28;20048;-85
2022/06/09 06:23:28;;;;;;;17.98;9.88;;;15.20;99.90;;;;;;5056576;28;20033;-85
2022/06/09 06:25:55;;;;;;;15.65;12.02;;;15.20;99.90;;;;;;5056350;28;20040;-85
2022/06/09 06:28:21;;;;;;;16.75;10.40;;;15.20;99.90;;;;;;5056147;28;20040;-85
2022/06/09 06:30:48;;;;;;;15.93;10.38;;;15.30;99.90;;;;;;5056084;28;20040;-85
2022/06/09 06:33:14;;;;;;;19.02;11.55;;;15.30;99.90;;;;;;5056285;28;20076;-85
2022/06/09 06:35:39;;;;;;;16.58;12.43;;;15.30;99.90;;;;;;5056359;28;20068;-85
2022/06/09 06:38:05;;;;;;;14.80;10.10;;;15.40;99.90;;;;;;5039706;28;20040;-85
2022/06/09 06:40:31;;;;;;;19.08;10.23;;;15.50;99.90;;;;;;5055462;28;20040;-85
2022/06/09 06:42:56;;;;;;;18.27;12.35;;;15.60;99.90;;;;;;5056097;28;20033;-85
2022/06/09 06:45:22;;;;;;;16.52;11.75;;;15.70;99.90;;;;;;5047452;28;20500;-85
2022/06/09 06:47:48;;;;;;;14.23;12.25;;;15.70;99.90;;;;;;5055691;28;20036;-86
2022/06/09 06:50:14;;;;;;;15.57;11.85;;;15.80;99.90;;;;;;5055903;28;20115;-86
2022/06/09 06:52:40;;;;;;;16.67;11.43;;;15.90;99.90;;;;;;5056051;28;20071;-85
2022/06/09 06:55:08;;;;;;;15.15;12.55;;;15.90;99.90;;;;;;5039038;28;20068;-85
2022/06/09 06:57:34;;;;;;;14.82;11.35;;;15.90;99.90;;;;;;5056041;28;20819;-85
2022/06/09 07:00:00;;;;;;;17.30;11.98;;;16.00;99.90;;;;;;5055395;28;20036;-85
2022/06/09 07:02:26;;;;;;;15.52;12.80;;;16.00;99.90;;;;;;5055198;28;20043;-85
2022/06/09 07:04:52;;;;;;;16.55;11.27;;;16.00;99.90;;;;;;5054972;28;20490;-86
2022/06/09 07:07:17;;;;;;;15.73;12.10;;;16.10;99.90;;;;;;5039206;28;20032;-86
2022/06/09 07:09:43;;;;;;;17.95;12.77;;;16.10;99.90;;;;;;5038328;28;20481;-86
2022/06/09 07:12:09;;;;;;;15.18;10.57;;;16.10;99.90;;;;;;5055323;28;20040;-85
2022/06/09 07:14:35;;;;;;;16.48;12.50;;;16.20;99.90;;;;;;5055780;28;20037;-85
2022/06/09 07:17:01;;;;;;;15.68;11.20;;;16.30;99.90;;;;;;5054436;28;20566;-85
2022/06/09 07:19:29;;;;;;;16.95;12.68;;;16.30;99.90;;;;;;5055318;28;20066;-85
2022/06/09 07:21:55;;;;;;;16.88;11.45;;;16.30;99.90;;;;;;5055459;28;20051;-84
2022/06/09 07:24:21;;;;;;;15.50;11.32;;;16.30;99.90;;;;;;5055038;28;20044;-84
2022/06/09 07:26:46;;;;;;;14.85;10.90;;;16.30;99.90;;;;;;5055500;28;20043;-84
2022/06/09 07:29:12;;;;;;;15.32;10.77;;;16.30;99.90;;;;;;5054930;28;20037;-84
2022/06/09 07:31:38;;;;;;;15.77;9.88;;;16.40;99.90;;;;;;5072883;28;20032;-83
2022/06/09 07:34:04;;;;;;;13.93;9.20;;;16.50;99.90;;;;;;5055062;28;20041;-84
2022/06/09 07:36:29;;;;;;;12.90;9.82;;;16.60;99.90;;;;;;5055379;28;20080;-84
2022/06/09 07:38:55;;;;;;;14.60;9.43;;;16.70;99.90;;;;;;5054508;28;20051;-84
2022/06/09 07:41:21;;;;;;;13.68;10.60;;;16.80;99.90;;;;;;5054356;28;20044;-82
2022/06/09 07:43:48;;;;;;;13.15;9.50;;;17.00;99.90;;;;;;5030070;28;20048;-83
2022/06/09 07:46:14;;;;;;;13.07;8.68;;;17.10;99.90;;;;;;5054573;28;20044;-84
2022/06/09 07:48:40;;;;;;;14.55;9.48;;;17.10;99.90;;;;;;5054860;28;20071;-85
2022/06/09 07:51:06;;;;;;;13.05;9.23;;;17.10;99.90;;;;;;5037936;28;20075;-85
2022/06/09 07:53:31;;;;;;;12.45;7.95;;;17.20;99.90;;;;;;5054879;28;20075;-85
2022/06/09 07:55:57;;;;;;;12.57;8.95;;;17.30;99.90;;;;;;5054292;28;20146;-85
2022/06/09 07:58:22;;;;;;;12.10;7.30;;;17.40;99.90;;;;;;5051274;28;20044;-85
2022/06/09 08:00:48;;;;;;;12.18;8.07;;;17.40;99.90;;;;;;5051474;28;20127;-85
2022/06/09 08:03:22;;;;;;;12.93;7.30;;;17.50;99.90;;;;;;5037395;28;20040;-86
2022/06/09 08:05:49;;;;;;;12.10;7.68;;;17.50;99.90;;;;;;5054618;28;20528;-86
2022/06/09 08:08:14;;;;;;;10.50;5.50;;;17.60;99.90;;;;;;5054640;28;20470;-85
2022/06/09 08:10:41;;;;;;;9.63;5.38;;;17.70;99.90;;;;;;5053666;28;20533;-86
2022/06/09 08:13:08;;;;;;;11.43;5.00;;;17.80;99.90;;;;;;5054268;28;20033;-86
2022/06/09 08:15:34;;;;;;;9.85;5.30;;;17.80;99.90;;;;;;5054590;28;20076;-86
2022/06/09 08:18:01;;;;;;;12.65;5.22;;;17.90;99.90;;;;;;5054020;28;20444;-85
2022/06/09 08:20:29;;;;;;;10.45;4.18;;;18.00;99.90;;;;;;5053883;28;20037;-85
2022/06/09 08:23:11;;;;;;;8.88;4.03;;;18.10;99.90;;;;;;5053979;28;20044;-86
2022/06/09 08:25:38;;;;;;;;;;;18.10;99.90;;;;;;5054621;28;20051;-85
2022/06/09 08:28:05;;;;;;;8.93;4.18;;;18.10;99.90;;;;;;5054332;28;19920;-86
2022/06/09 08:30:31;;;;;;;11.35;3.60;;;18.10;99.90;;;;;;5054006;28;20046;-86
2022/06/09 08:32:57;;;;;;;10.30;3.15;;;18.10;99.90;;;;;;5037180;28;20040;-86
2022/06/09 08:35:24;;;;;;;9.70;3.05;;;18.20;99.90;;;;;;5053943;28;20048;-86
2022/06/09 08:37:51;;;;;;;8.65;3.40;;;18.10;99.90;;;;;;5037336;28;20045;-86
2022/06/09 08:40:23;;;;;;;8.30;3.60;;;18.10;99.90;;;;;;5053247;28;20044;-86
2022/06/09 08:43:06;;;;;;;9.85;3.28;;;18.30;99.90;;;;;;5054021;28;20517;-85
2022/06/09 08:45:34;;;;;;;8.00;3.00;;;18.30;99.90;;;;;;5053598;28;20044;-86
2022/06/09 08:48:03;;;;;;;7.50;3.00;;;18.30;99.90;;;;;;5037417;28;20068;-86
2022/06/09 08:50:46;;;;;;;8.73;2.72;;;18.40;99.90;;;;;;5053580;28;20040;-86
2022/06/09 08:53:11;;;;;;;;;;;18.60;99.90;;;;;;5054071;28;20401;-86
2022/06/09 08:55:43;;;;;;;7.63;2.30;;;18.60;99.90;;;;;;5053651;28;19923;-86
2022/06/09 08:58:11;;;;;;;7.82;2.20;;;18.60;99.90;;;;;;5053706;28;20048;-85
2022/06/09 09:00:42;;;;;;;8.13;2.30;;;18.70;99.90;;;;;;5036514;28;20501;-86
2022/06/09 09:03:35;;;;;;;7.30;2.22;;;18.70;99.90;;;;;;5053525;28;20045;-85
2022/06/09 09:06:21;;;;;;;10.02;2.83;;;18.60;99.90;;;;;;5045746;28;20056;-86
2022/06/09 09:08:47;;;;;;;9.70;2.65;;;18.40;99.90;;;;;;5053039;28;20115;-86
2022/06/09 09:11:15;;;;;;;7.65;2.20;;;18.30;99.90;;;;;;5036448;28;20120;-85
2022/06/09 09:14:00;;;;;;;8.00;2.10;;;18.30;99.90;;;;;;5053523;28;20055;-86
2022/06/09 09:16:26;;;;;;;5.93;1.85;;;18.40;99.90;;;;;;5053020;28;20045;-86
2022/06/09 09:18:54;;;;;;;6.63;1.83;;;18.60;99.90;;;;;;5053512;28;20048;-86
2022/06/09 09:21:28;;;;;;;8.68;1.65;;;18.80;99.90;;;;;;5053274;28;20114;-86
2022/06/09 09:24:21;;;;;;;6.38;1.70;;;19.00;99.90;;;;;;5053151;28;20040;-86
2022/06/09 09:27:01;;;;;;;8.02;1.98;;;19.00;99.90;;;;;;5053769;28;20048;-86
2022/06/09 09:29:55;;;;;;;7.18;1.83;;;18.90;99.90;;;;;;5056993;28;20037;-85
2022/06/09 09:32:28;;;;;;;8.07;1.90;;;18.90;99.90;;;;;;5056589;28;20039;-85
2022/06/09 09:34:56;;;;;;;7.32;1.80;;;19.00;99.90;;;;;;5057487;28;20509;-84
2022/06/09 09:37:32;;;;;;;7.65;2.10;;;19.10;99.90;;;;;;5040247;28;20075;-84
2022/06/09 09:40:09;;;;;;;8.38;1.98;;;19.20;99.90;;;;;;5056818;28;20045;-85
2022/06/09 09:42:38;;;;;;;5.72;1.70;;;19.10;99.90;;;;;;5057534;28;20040;-85
2022/06/09 09:45:08;;;;;;;6.65;1.42;;;19.10;99.90;;;;;;5056869;28;20082;-84
2022/06/09 09:47:45;;;;;;;7.32;1.73;;;19.30;99.90;;;;;;5040950;28;20192;-84
2022/06/09 09:50:37;;;;;;;8.35;1.50;;;19.40;99.90;;;;;;5040137;28;20044;-85
2022/06/09 09:53:51;;;;;;;4.45;1.30;;;19.60;99.90;;;;;;5056802;28;20064;-85
2022/06/09 09:56:16;;;;;;;;;;;19.70;99.90;;;;;;5041066;28;20076;-85
2022/06/09 09:58:47;;;;;;;8.35;1.80;;;19.70;99.90;;;;;;5040233;28;19955;-85
2022/06/09 10:01:16;;;;;;;6.63;1.38;;;19.80;99.90;;;;;;5056503;28;20090;-84
2022/06/09 10:09:51;;;;;;;6.57;1.45;;;19.80;99.90;;;;;;5046206;28;20041;-85
2022/06/09 10:12:22;;;;;;;8.27;1.42;;;19.90;99.90;;;;;;5030413;28;20116;-84
2022/06/09 10:14:57;;;;;;;5.70;1.30;;;19.90;99.90;;;;;;5045010;28;20561;-85
2022/06/09 10:17:41;;;;;;;8.32;1.30;;;20.00;99.90;;;;;;5045065;28;20043;-85
2022/06/09 10:20:25;;;;;;;4.28;1.00;;;20.10;99.90;;;;;;5060646;28;20497;-83
2022/06/09 10:22:58;;;;;;;5.97;1.13;;;20.10;99.90;;;;;;5035961;28;20040;-84
2022/06/09 10:25:36;;;;;;;5.13;1.30;;;20.10;99.90;;;;;;5048603;28;20069;-85
2022/06/09 10:28:22;;;;;;;8.23;1.38;;;20.20;99.90;;;;;;5056349;28;20076;-85
2022/06/09 10:31:08;;;;;;;4.95;1.10;;;20.20;99.90;;;;;;5039351;28;20037;-84
2022/06/09 10:33:41;;;;;;;8.57;1.38;;;20.10;99.90;;;;;;5039803;28;20509;-84
2022/06/09 10:36:32;;;;;;;5.20;1.20;;;20.10;99.90;;;;;;5039731;28;20068;-85
2022/06/09 10:39:16;;;;;;;6.60;1.23;;;20.00;99.90;;;;;;5038420;28;20037;-85
2022/06/09 10:41:50;;;;;;;6.07;1.40;;;20.10;99.90;;;;;;5039676;28;20040;-85
2022/06/09 10:44:25;;;;;;;7.18;1.40;;;20.10;99.90;;;;;;5039297;28;20336;-84
2022/06/09 10:55:47;;;;;;;6.93;1.30;;;20.40;99.90;;;;;;5075945;28;20052;-85
2022/06/09 10:58:27;;;;;;;7.22;1.45;;;20.50;99.90;;;;;;5076317;28;20435;-85
2022/06/09 11:00:53;;;;;;;6.50;1.20;;;20.50;99.90;;;;;;5075216;28;20485;-85
2022/06/09 11:03:22;;;;;;;7.13;1.23;;;20.60;99.90;;;;;;5075516;28;20561;-85
2022/06/09 11:06:13;;;;;;;5.63;1.25;;;20.50;99.90;;;;;;5075818;28;20036;-85
2022/06/09 11:08:52;;;;;;;8.10;1.42;;;20.60;99.90;;;;;;5075926;28;20044;-84
2022/06/09 11:11:33;;;;;;;8.52;1.70;;;20.70;99.90;;;;;;5058484;28;20427;-85
2022/06/09 11:14:04;;;;;;;7.35;1.33;;;20.70;99.90;;;;;;5075346;28;20119;-85
2022/06/09 11:16:53;;;;;;;6.35;1.30;;;20.80;99.90;;;;;;5075573;28;20044;-85
2022/06/09 11:19:56;;;;;;;5.45;1.27;;;20.80;99.90;;;;;;5058633;28;20100;-84
2022/06/09 11:22:47;;;;;;;8.10;1.70;;;20.80;99.90;;;;;;5058568;28;20050;-85
2022/06/09 11:25:21;;;;;;;7.22;1.30;;;20.80;99.90;;;;;;5075476;28;20093;-85
2022/06/09 11:27:54;;;;;;;8.10;1.90;;;20.90;99.90;;;;;;5075325;28;20048;-85
2022/06/09 11:30:31;;;;;;;7.90;1.20;;;20.90;99.90;;;;;;5074487;28;20039;-85
2022/06/09 11:33:02;;;;;;;5.63;1.33;;;20.90;99.90;;;;;;5058629;28;20127;-85
2022/06/09 11:35:34;;;;;;;7.72;1.27;;;20.90;99.90;;;;;;5075336;28;20044;-85
2022/06/09 11:38:36;;;;;;;6.88;1.40;;;21.00;99.90;;;;;;5057995;28;20412;-85
2022/06/09 11:41:25;;;;;;;8.57;1.60;;;21.10;99.90;;;;;;5075288;28;20485;-85
2022/06/09 11:43:53;;;;;;;8.73;1.70;;;21.20;99.90;;;;;;5074688;28;20044;-85
2022/06/09 11:46:23;;;;;;;6.45;1.50;;;21.30;99.90;;;;;;5075326;28;20510;-85
2022/06/09 11:48:53;;;;;;;7.82;1.48;;;21.40;99.90;;;;;;5058252;28;20040;-85
2022/06/09 11:51:23;;;;;;;7.40;1.50;;;21.50;99.90;;;;;;5057428;28;20040;-85
2022/06/09 11:53:53;;;;;;;6.40;1.40;;;21.50;99.90;;;;;;5074796;28;20096;-85
2022/06/09 11:56:45;;;;;;;8.45;1.35;;;21.50;99.90;;;;;;5074957;28;20500;-85
2022/06/09 11:59:54;;;;;;;7.43;1.38;;;21.50;99.90;;;;;;5074063;28;20047;-85
2022/06/09 12:02:48;;;;;;;5.40;1.10;;;21.70;99.90;;;;;;5058226;28;20070;-85
2022/06/09 12:05:20;;;;;;;7.20;1.50;;;21.70;98.50;;;;;;5074740;28;20086;-85
2022/06/09 12:08:06;;;;;;;6.40;1.20;;;21.70;99.60;;;;;;5057819;28;20079;-85
2022/06/09 12:10:54;;;;;;;6.53;1.45;;;21.60;97.80;;;;;;5074023;28;20508;-85
2022/06/09 12:13:27;;;;;;;8.95;1.50;;;21.50;99.90;;;;;;5057355;28;20123;-85
2022/06/09 12:16:00;;;;;;;6.78;1.35;;;21.50;97.70;;;;;;5057717;28;20408;-85
2022/06/09 12:18:34;;;;;;;10.63;1.77;;;21.50;99.90;;;;;;5074267;28;20509;-85
2022/06/09 12:21:09;;;;;;;7.65;1.42;;;21.50;99.90;;;;;;5073503;28;20500;-85
2022/06/09 12:23:49;;;;;;;7.95;1.52;;;21.50;99.90;;;;;;5074327;28;20102;-85
2022/06/09 12:26:16;;;;;;;7.72;1.60;;;21.60;98.30;;;;;;5074170;28;20416;-85
2022/06/09 12:28:43;;;;;;;7.75;1.50;;;21.60;98.70;;;;;;5073516;28;20047;-85
2022/06/09 12:31:13;;;;;;;8.77;1.67;;;21.60;99.60;;;;;;5073708;28;20047;-85
2022/06/09 12:34:02;;;;;;;10.15;1.75;;;21.60;99.90;;;;;;5057692;28;20413;-85
2022/06/09 12:36:43;;;;;;;6.32;1.40;;;21.60;98.90;;;;;;5057128;28;20526;-84
2022/06/09 12:39:26;;;;;;;8.43;1.70;;;21.50;99.20;;;;;;5073770;28;20044;-84
2022/06/09 12:42:02;;;;;;;8.68;1.40;;;21.50;97.90;;;;;;5074296;28;20431;-84
2022/06/09 12:44:54;;;;;;;7.25;1.45;;;21.50;99.90;;;;;;5073586;28;20089;-85
2022/06/09 12:47:24;;;;;;;6.88;1.33;;;21.60;98.30;;;;;;5073981;28;20071;-85
2022/06/09 12:49:54;;;;;;;8.43;1.40;;;21.50;96.20;;;;;;5073204;28;20044;-85
2022/06/09 12:52:41;;;;;;;6.88;1.50;;;21.50;96.00;;;;;;5073733;28;20127;-85
2022/06/09 12:55:24;;;;;;;7.30;1.70;;;21.70;99.90;;;;;;5073872;28;20462;-86
2022/06/09 12:57:56;;;;;;;6.07;1.33;;;21.70;99.90;;;;;;5073601;28;20384;-85
2022/06/09 13:00:33;;;;;;;;;;;21.70;97.00;;;;;;5074067;28;20485;-85
2022/06/09 13:02:58;;;;;;;6.47;1.25;;;21.50;94.60;;;;;;5073271;28;19923;-85
2022/06/09 13:05:34;;;;;;;9.80;1.83;;;21.60;99.90;;;;;;5073348;28;20536;-85
2022/06/09 13:08:12;;;;;;;6.63;1.70;;;21.80;99.90;;;;;;5073878;28;20078;-85
2022/06/09 13:10:40;;;;;;;7.57;1.38;;;22.00;99.90;;;;;;5073335;28;20561;-85
2022/06/09 13:13:17;;;;;;;6.65;1.30;;;22.00;99.90;;;;;;5056638;28;20046;-85
2022/06/09 13:15:55;;;;;;;8.30;1.50;;;22.20;99.90;;;;;;5056865;28;20040;-85
2022/06/09 13:18:27;;;;;;;8.07;1.90;;;22.20;95.40;;;;;;5073709;28;20035;-85
2022/06/09 13:21:02;;;;;;;8.77;1.92;;;21.80;93.00;;;;;;5072955;28;20066;-85
2022/06/09 13:23:30;;;;;;;9.20;1.80;;;21.50;98.60;;;;;;5073688;28;20048;-85
2022/06/09 13:25:56;;;;;;;7.70;1.70;;;21.60;99.90;;;;;;5056856;28;20051;-85